THY85 LTFM-EDDF
Flight info
| Callsign | THY85 |
|---|---|
| Flight time | 2h 32m |
| Altitude | 40000 |
| Route | TUDBU Q26 ETUBA DCT NAVOD DCT MOPUG DCT ARSIN DCT SUBEN DCT AKINI T161 DEBHI DEBHI1D |
| Aircraft | A388/J-SADE2E3FGHIJ3J4J5M1RWXY/LB1D1 |
Departure
| Time | 2026-04-15 09:32 |
|---|---|
| Airport | İstanbul Airport (LTFM) |
Arrival
| Time | 2026-04-15 12:05 |
|---|---|
| Airport | Frankfurt Main Airport (EDDF) |
| Time | Latitude | Longitude | Altitude | Speed | Heading |
|---|---|---|---|---|---|
| 2026-04-15 09:02 | 41.26624 | 28.73772 | 309 ft | 0 kts | 269° |
| 2026-04-15 09:21 | 41.26624 | 28.73782 | 309 ft | 2 kts | 270° |
| 2026-04-15 09:22 | 41.26623 | 28.73804 | 310 ft | 2 kts | 272° |
| 2026-04-15 09:22 | 41.26622 | 28.73826 | 309 ft | 2 kts | 277° |
| 2026-04-15 09:22 | 41.26618 | 28.73847 | 309 ft | 2 kts | 287° |
| 2026-04-15 09:22 | 41.26609 | 28.73865 | 308 ft | 2 kts | 311° |
| 2026-04-15 09:23 | 41.26595 | 28.73874 | 309 ft | 2 kts | 346° |
| 2026-04-15 09:23 | 41.26590 | 28.73874 | 308 ft | 0 kts | 353° |
| 2026-04-15 09:23 | 41.26591 | 28.73874 | 309 ft | 1 kts | 352° |
| 2026-04-15 09:23 | 41.26594 | 28.73874 | 309 ft | 0 kts | 352° |
| 2026-04-15 09:27 | 41.26595 | 28.73873 | 309 ft | 2 kts | 352° |
| 2026-04-15 09:27 | 41.26704 | 28.73871 | 310 ft | 23 kts | 360° |
| 2026-04-15 09:27 | 41.26840 | 28.73870 | 312 ft | 16 kts | 359° |
| 2026-04-15 09:28 | 41.26891 | 28.73869 | 310 ft | 0 kts | 359° |
| 2026-04-15 09:28 | 41.26907 | 28.73866 | 310 ft | 10 kts | 336° |
| 2026-04-15 09:28 | 41.26927 | 28.73748 | 309 ft | 27 kts | 268° |
| 2026-04-15 09:28 | 41.26937 | 28.73356 | 309 ft | 49 kts | 272° |
| 2026-04-15 09:29 | 41.26921 | 28.73024 | 311 ft | 24 kts | 221° |
| 2026-04-15 09:29 | 41.26784 | 28.72986 | 311 ft | 18 kts | 180° |
| 2026-04-15 09:29 | 41.26673 | 28.72988 | 312 ft | 14 kts | 181° |
| 2026-04-15 09:29 | 41.26358 | 28.72969 | 311 ft | 41 kts | 182° |
| 2026-04-15 09:30 | 41.26238 | 28.72955 | 311 ft | 16 kts | 202° |
| 2026-04-15 09:30 | 41.26221 | 28.72943 | 312 ft | 0 kts | 227° |
| 2026-04-15 09:30 | 41.26221 | 28.72942 | 312 ft | 2 kts | 227° |
| 2026-04-15 09:30 | 41.26203 | 28.72808 | 311 ft | 17 kts | 307° |
| 2026-04-15 09:31 | 41.26285 | 28.72773 | 313 ft | 9 kts | 357° |
| 2026-04-15 09:31 | 41.26293 | 28.72772 | 312 ft | 0 kts | 358° |
| 2026-04-15 09:32 | 41.26328 | 28.72772 | 312 ft | 30 kts | 0° |
| 2026-04-15 09:32 | 41.26880 | 28.72766 | 312 ft | 124 kts | 359° |
| 2026-04-15 09:32 | 41.27921 | 28.72735 | 556 ft | 163 kts | 3° |
| 2026-04-15 09:32 | 41.29047 | 28.72668 | 1440 ft | 160 kts | 2° |
| 2026-04-15 09:33 | 41.30163 | 28.72653 | 2316 ft | 166 kts | 4° |
| 2026-04-15 09:33 | 41.31384 | 28.72655 | 2866 ft | 185 kts | 2° |
| 2026-04-15 09:33 | 41.32746 | 28.72641 | 3184 ft | 210 kts | 2° |
| 2026-04-15 09:33 | 41.34274 | 28.72623 | 3695 ft | 231 kts | 1° |
| 2026-04-15 09:34 | 41.35962 | 28.72593 | 4184 ft | 255 kts | 0° |
| 2026-04-15 09:34 | 41.37783 | 28.72443 | 4918 ft | 268 kts | 350° |
| 2026-04-15 09:34 | 41.39570 | 28.71722 | 5836 ft | 270 kts | 335° |
| 2026-04-15 09:34 | 41.41251 | 28.70606 | 6800 ft | 272 kts | 333° |
| 2026-04-15 09:35 | 41.42958 | 28.69497 | 7699 ft | 276 kts | 333° |
| 2026-04-15 09:35 | 41.44686 | 28.68399 | 8624 ft | 278 kts | 333° |
| 2026-04-15 09:35 | 41.46442 | 28.67285 | 9557 ft | 281 kts | 333° |
| 2026-04-15 09:35 | 41.48211 | 28.66159 | 10382 ft | 288 kts | 332° |
| 2026-04-15 09:36 | 41.50087 | 28.64958 | 10694 ft | 311 kts | 333° |
| 2026-04-15 09:36 | 41.52100 | 28.63667 | 10928 ft | 332 kts | 333° |
| 2026-04-15 09:36 | 41.54197 | 28.62324 | 11575 ft | 338 kts | 333° |
| 2026-04-15 09:36 | 41.56294 | 28.60883 | 12282 ft | 341 kts | 327° |
| 2026-04-15 09:37 | 41.58220 | 28.59011 | 12979 ft | 346 kts | 318° |
| 2026-04-15 09:37 | 41.59914 | 28.56727 | 13728 ft | 349 kts | 311° |
| 2026-04-15 09:37 | 41.61537 | 28.54296 | 14383 ft | 353 kts | 311° |
| 2026-04-15 09:37 | 41.63192 | 28.51871 | 15112 ft | 354 kts | 311° |
| 2026-04-15 09:38 | 41.64857 | 28.49442 | 15806 ft | 357 kts | 311° |
| 2026-04-15 09:38 | 41.66459 | 28.46894 | 16422 ft | 360 kts | 305° |
| 2026-04-15 09:38 | 41.67788 | 28.44051 | 17063 ft | 363 kts | 297° |
| 2026-04-15 09:38 | 41.68839 | 28.40971 | 17720 ft | 366 kts | 292° |
| 2026-04-15 09:39 | 41.69844 | 28.37836 | 18367 ft | 369 kts | 293° |
| 2026-04-15 09:39 | 41.70875 | 28.34692 | 18976 ft | 370 kts | 294° |
| 2026-04-15 09:39 | 41.71910 | 28.31547 | 19571 ft | 371 kts | 293° |
| 2026-04-15 09:39 | 41.72953 | 28.28365 | 20029 ft | 376 kts | 293° |
| 2026-04-15 09:40 | 41.74000 | 28.25162 | 20613 ft | 377 kts | 293° |
| 2026-04-15 09:40 | 41.75050 | 28.21936 | 21125 ft | 380 kts | 292° |
| 2026-04-15 09:40 | 41.76106 | 28.18690 | 21675 ft | 382 kts | 292° |
| 2026-04-15 09:40 | 41.77167 | 28.15420 | 22205 ft | 384 kts | 292° |
| 2026-04-15 09:41 | 41.78234 | 28.12131 | 22734 ft | 387 kts | 292° |
| 2026-04-15 09:41 | 41.79404 | 28.08885 | 23248 ft | 390 kts | 298° |
| 2026-04-15 09:41 | 41.80888 | 28.05831 | 23771 ft | 394 kts | 305° |
| 2026-04-15 09:41 | 41.82559 | 28.02920 | 24239 ft | 395 kts | 305° |
| 2026-04-15 09:42 | 41.84215 | 27.99986 | 24713 ft | 396 kts | 304° |
| 2026-04-15 09:42 | 41.85869 | 27.97032 | 25187 ft | 398 kts | 304° |
| 2026-04-15 09:42 | 41.87526 | 27.94068 | 25675 ft | 399 kts | 304° |
| 2026-04-15 09:42 | 41.89190 | 27.91090 | 26166 ft | 400 kts | 304° |
| 2026-04-15 09:43 | 41.90862 | 27.88099 | 26679 ft | 402 kts | 304° |
| 2026-04-15 09:43 | 41.92540 | 27.85095 | 27206 ft | 404 kts | 303° |
| 2026-04-15 09:43 | 41.94225 | 27.82077 | 27705 ft | 407 kts | 303° |
| 2026-04-15 09:43 | 41.95927 | 27.79029 | 28259 ft | 409 kts | 304° |
| 2026-04-15 09:44 | 41.97793 | 27.76120 | 28822 ft | 415 kts | 310° |
| 2026-04-15 09:44 | 41.99837 | 27.73372 | 29362 ft | 418 kts | 310° |
| 2026-04-15 09:44 | 42.01879 | 27.70593 | 29923 ft | 420 kts | 310° |
| 2026-04-15 09:44 | 42.03926 | 27.67788 | 30433 ft | 423 kts | 309° |
| 2026-04-15 09:45 | 42.05988 | 27.64959 | 30901 ft | 425 kts | 309° |
| 2026-04-15 09:45 | 42.08063 | 27.62110 | 31401 ft | 428 kts | 309° |
| 2026-04-15 09:45 | 42.10155 | 27.59235 | 31752 ft | 434 kts | 309° |
| 2026-04-15 09:45 | 42.12271 | 27.56326 | 32210 ft | 437 kts | 309° |
| 2026-04-15 09:46 | 42.14398 | 27.53400 | 32689 ft | 439 kts | 310° |
| 2026-04-15 09:46 | 42.16535 | 27.50460 | 33171 ft | 441 kts | 310° |
| 2026-04-15 09:46 | 42.18684 | 27.47498 | 33610 ft | 444 kts | 310° |
| 2026-04-15 09:46 | 42.20847 | 27.44513 | 34052 ft | 447 kts | 310° |
| 2026-04-15 09:47 | 42.23023 | 27.41507 | 34449 ft | 450 kts | 310° |
| 2026-04-15 09:47 | 42.25214 | 27.38478 | 34801 ft | 454 kts | 310° |
| 2026-04-15 09:47 | 42.27432 | 27.35408 | 35066 ft | 460 kts | 310° |
| 2026-04-15 09:47 | 42.29658 | 27.32325 | 35574 ft | 459 kts | 310° |
| 2026-04-15 09:48 | 42.31881 | 27.29245 | 36111 ft | 458 kts | 310° |
| 2026-04-15 09:48 | 42.34096 | 27.26172 | 36630 ft | 457 kts | 310° |
| 2026-04-15 09:48 | 42.36308 | 27.23098 | 37137 ft | 457 kts | 310° |
| 2026-04-15 09:48 | 42.38514 | 27.20028 | 37659 ft | 456 kts | 310° |
| 2026-04-15 09:49 | 42.40718 | 27.16958 | 38151 ft | 455 kts | 310° |
| 2026-04-15 09:49 | 42.42927 | 27.13875 | 38440 ft | 459 kts | 310° |
| 2026-04-15 09:49 | 42.45148 | 27.10774 | 38892 ft | 460 kts | 310° |
| 2026-04-15 09:49 | 42.47366 | 27.07674 | 39262 ft | 460 kts | 310° |
| 2026-04-15 09:50 | 42.49587 | 27.04568 | 39595 ft | 460 kts | 310° |
| 2026-04-15 09:50 | 42.51810 | 27.01455 | 39920 ft | 461 kts | 310° |
| 2026-04-15 09:50 | 42.54038 | 26.98332 | 40206 ft | 463 kts | 310° |
| 2026-04-15 09:50 | 42.56285 | 26.95176 | 40252 ft | 470 kts | 310° |
| 2026-04-15 09:51 | 42.60793 | 26.88840 | 40252 ft | 467 kts | 310° |
| 2026-04-15 09:51 | 42.65302 | 26.82487 | 40243 ft | 468 kts | 310° |
| 2026-04-15 09:52 | 42.69810 | 26.76119 | 40238 ft | 469 kts | 310° |
| 2026-04-15 09:52 | 42.74318 | 26.69739 | 40233 ft | 470 kts | 310° |
| 2026-04-15 09:53 | 42.78840 | 26.63320 | 40253 ft | 471 kts | 309° |
| 2026-04-15 09:53 | 42.82933 | 26.56418 | 40255 ft | 468 kts | 301° |
| 2026-04-15 09:54 | 42.86477 | 26.49001 | 40254 ft | 468 kts | 300° |
| 2026-04-15 09:54 | 42.90035 | 26.41588 | 40243 ft | 468 kts | 300° |
| 2026-04-15 09:55 | 42.93568 | 26.34175 | 40229 ft | 467 kts | 300° |
| 2026-04-15 09:55 | 42.97086 | 26.26754 | 40218 ft | 466 kts | 300° |
| 2026-04-15 09:56 | 43.00591 | 26.19337 | 40211 ft | 465 kts | 300° |
| 2026-04-15 09:57 | 43.05823 | 26.08227 | 40187 ft | 465 kts | 300° |
| 2026-04-15 09:57 | 43.09306 | 26.00813 | 40189 ft | 464 kts | 300° |
| 2026-04-15 09:58 | 43.12780 | 25.93397 | 40190 ft | 464 kts | 300° |
| 2026-04-15 09:58 | 43.16249 | 25.85971 | 40206 ft | 464 kts | 300° |
| 2026-04-15 09:59 | 43.19714 | 25.78537 | 40205 ft | 463 kts | 300° |
| 2026-04-15 09:59 | 43.23169 | 25.71104 | 40202 ft | 463 kts | 300° |
| 2026-04-15 10:00 | 43.26617 | 25.63669 | 40203 ft | 463 kts | 300° |
| 2026-04-15 10:00 | 43.30063 | 25.56219 | 40207 ft | 463 kts | 300° |
| 2026-04-15 10:01 | 43.33508 | 25.48753 | 40206 ft | 464 kts | 300° |
| 2026-04-15 10:01 | 43.36949 | 25.41276 | 40209 ft | 464 kts | 300° |
| 2026-04-15 10:02 | 43.40388 | 25.33785 | 40210 ft | 464 kts | 300° |
| 2026-04-15 10:02 | 43.43824 | 25.26280 | 40215 ft | 465 kts | 300° |
| 2026-04-15 10:03 | 43.47260 | 25.18757 | 40220 ft | 465 kts | 300° |
| 2026-04-15 10:03 | 43.50694 | 25.11220 | 40228 ft | 465 kts | 299° |
| 2026-04-15 10:04 | 43.54124 | 25.03670 | 40224 ft | 466 kts | 300° |
| 2026-04-15 10:04 | 43.57549 | 24.96112 | 40235 ft | 466 kts | 300° |
| 2026-04-15 10:05 | 43.60965 | 24.88553 | 40232 ft | 465 kts | 300° |
| 2026-04-15 10:05 | 43.64373 | 24.80995 | 40234 ft | 464 kts | 299° |
| 2026-04-15 10:06 | 43.67773 | 24.73434 | 40232 ft | 464 kts | 299° |
| 2026-04-15 10:06 | 43.71164 | 24.65871 | 40226 ft | 464 kts | 299° |
| 2026-04-15 10:07 | 43.74576 | 24.58329 | 40223 ft | 464 kts | 302° |
| 2026-04-15 10:07 | 43.78655 | 24.51400 | 40223 ft | 467 kts | 310° |
| 2026-04-15 10:08 | 43.83063 | 24.44802 | 40225 ft | 467 kts | 310° |
| 2026-04-15 10:08 | 43.87453 | 24.38182 | 40226 ft | 468 kts | 310° |
| 2026-04-15 10:09 | 43.91851 | 24.31559 | 40235 ft | 468 kts | 310° |
| 2026-04-15 10:09 | 43.96246 | 24.24928 | 40228 ft | 468 kts | 310° |
| 2026-04-15 10:10 | 44.00641 | 24.18278 | 40226 ft | 468 kts | 310° |
| 2026-04-15 10:10 | 44.05036 | 24.11611 | 40227 ft | 469 kts | 310° |
| 2026-04-15 10:11 | 44.09427 | 24.04937 | 40228 ft | 469 kts | 310° |
| 2026-04-15 10:11 | 44.13820 | 23.98241 | 40218 ft | 470 kts | 310° |
| 2026-04-15 10:12 | 44.18215 | 23.91528 | 40224 ft | 471 kts | 310° |
| 2026-04-15 10:12 | 44.22613 | 23.84794 | 40229 ft | 471 kts | 309° |
| 2026-04-15 10:13 | 44.27016 | 23.78037 | 40231 ft | 471 kts | 309° |
| 2026-04-15 10:13 | 44.31414 | 23.71270 | 40235 ft | 472 kts | 309° |
| 2026-04-15 10:14 | 44.35812 | 23.64486 | 40234 ft | 472 kts | 309° |
| 2026-04-15 10:14 | 44.40207 | 23.57691 | 40232 ft | 472 kts | 309° |
| 2026-04-15 10:15 | 44.44600 | 23.50884 | 40229 ft | 472 kts | 309° |
| 2026-04-15 10:15 | 44.48990 | 23.44064 | 40218 ft | 473 kts | 309° |
| 2026-04-15 10:16 | 44.53384 | 23.37221 | 40230 ft | 473 kts | 310° |
| 2026-04-15 10:16 | 44.57772 | 23.30371 | 40223 ft | 473 kts | 309° |
| 2026-04-15 10:17 | 44.62153 | 23.23515 | 40227 ft | 473 kts | 310° |
| 2026-04-15 10:17 | 44.66533 | 23.16644 | 40211 ft | 473 kts | 310° |
| 2026-04-15 10:18 | 44.70911 | 23.09760 | 40216 ft | 473 kts | 309° |
| 2026-04-15 10:18 | 44.75286 | 23.02861 | 40219 ft | 474 kts | 309° |
| 2026-04-15 10:19 | 44.79662 | 22.95946 | 40218 ft | 474 kts | 309° |
| 2026-04-15 10:19 | 44.84031 | 22.89024 | 40223 ft | 473 kts | 309° |
| 2026-04-15 10:20 | 44.88388 | 22.82104 | 40220 ft | 473 kts | 309° |
| 2026-04-15 10:20 | 44.92737 | 22.75181 | 40204 ft | 472 kts | 309° |
| 2026-04-15 10:21 | 44.97074 | 22.68258 | 40188 ft | 472 kts | 309° |
| 2026-04-15 10:21 | 45.01410 | 22.61322 | 40182 ft | 472 kts | 309° |
| 2026-04-15 10:22 | 45.05742 | 22.54373 | 40172 ft | 472 kts | 309° |
| 2026-04-15 10:22 | 45.10073 | 22.47408 | 40183 ft | 472 kts | 309° |
| 2026-04-15 10:23 | 45.14402 | 22.40430 | 40189 ft | 472 kts | 309° |
| 2026-04-15 10:23 | 45.18724 | 22.33444 | 40167 ft | 472 kts | 309° |
| 2026-04-15 10:24 | 45.23038 | 22.26455 | 40160 ft | 472 kts | 309° |
| 2026-04-15 10:24 | 45.27346 | 22.19458 | 40154 ft | 472 kts | 309° |
| 2026-04-15 10:25 | 45.31649 | 22.12451 | 40172 ft | 471 kts | 309° |
| 2026-04-15 10:25 | 45.35943 | 22.05441 | 40156 ft | 471 kts | 309° |
| 2026-04-15 10:26 | 45.40237 | 21.98416 | 40170 ft | 472 kts | 309° |
| 2026-04-15 10:26 | 45.44526 | 21.91378 | 40159 ft | 472 kts | 309° |
| 2026-04-15 10:27 | 45.48815 | 21.84324 | 40161 ft | 472 kts | 309° |
| 2026-04-15 10:27 | 45.53101 | 21.77257 | 40165 ft | 472 kts | 309° |
| 2026-04-15 10:28 | 45.57383 | 21.70177 | 40171 ft | 472 kts | 309° |
| 2026-04-15 10:28 | 45.61664 | 21.63081 | 40173 ft | 472 kts | 309° |
| 2026-04-15 10:29 | 45.65941 | 21.55976 | 40173 ft | 473 kts | 309° |
| 2026-04-15 10:29 | 45.70215 | 21.48855 | 40175 ft | 473 kts | 309° |
| 2026-04-15 10:30 | 45.74486 | 21.41722 | 40183 ft | 473 kts | 309° |
| 2026-04-15 10:30 | 45.78749 | 21.34583 | 40188 ft | 472 kts | 309° |
| 2026-04-15 10:31 | 45.83006 | 21.27438 | 40189 ft | 472 kts | 309° |
| 2026-04-15 10:31 | 45.87256 | 21.20284 | 40184 ft | 472 kts | 309° |
| 2026-04-15 10:32 | 45.91497 | 21.13128 | 40182 ft | 472 kts | 309° |
| 2026-04-15 10:32 | 45.95736 | 21.05957 | 40180 ft | 472 kts | 309° |
| 2026-04-15 10:33 | 45.99968 | 20.98778 | 40178 ft | 472 kts | 309° |
| 2026-04-15 10:33 | 46.04197 | 20.91587 | 40180 ft | 472 kts | 309° |
| 2026-04-15 10:34 | 46.08426 | 20.84379 | 40185 ft | 472 kts | 309° |
| 2026-04-15 10:34 | 46.12653 | 20.77164 | 40189 ft | 472 kts | 309° |
| 2026-04-15 10:35 | 46.16576 | 20.69620 | 40192 ft | 471 kts | 302° |
| 2026-04-15 10:35 | 46.19860 | 20.61489 | 40189 ft | 470 kts | 297° |
| 2026-04-15 10:36 | 46.23009 | 20.53239 | 40189 ft | 470 kts | 298° |
| 2026-04-15 10:36 | 46.26164 | 20.44983 | 40189 ft | 470 kts | 298° |
| 2026-04-15 10:37 | 46.29296 | 20.36710 | 40177 ft | 471 kts | 298° |
| 2026-04-15 10:37 | 46.32442 | 20.28428 | 40183 ft | 471 kts | 298° |
| 2026-04-15 10:38 | 46.35557 | 20.20117 | 40187 ft | 471 kts | 297° |
| 2026-04-15 10:38 | 46.38662 | 20.11770 | 40191 ft | 472 kts | 297° |
| 2026-04-15 10:39 | 46.41775 | 20.03414 | 40194 ft | 472 kts | 297° |
| 2026-04-15 10:39 | 46.44887 | 19.95049 | 40197 ft | 473 kts | 297° |
| 2026-04-15 10:40 | 46.47996 | 19.86665 | 40202 ft | 473 kts | 297° |
| 2026-04-15 10:40 | 46.51095 | 19.78281 | 40204 ft | 473 kts | 297° |
| 2026-04-15 10:41 | 46.54189 | 19.69883 | 40198 ft | 472 kts | 297° |
| 2026-04-15 10:41 | 46.57276 | 19.61479 | 40195 ft | 472 kts | 297° |
| 2026-04-15 10:42 | 46.60357 | 19.53065 | 40193 ft | 472 kts | 297° |
| 2026-04-15 10:42 | 46.63431 | 19.44646 | 40192 ft | 472 kts | 297° |
| 2026-04-15 10:43 | 46.66501 | 19.36208 | 40184 ft | 473 kts | 297° |
| 2026-04-15 10:43 | 46.69565 | 19.27762 | 40186 ft | 473 kts | 297° |
| 2026-04-15 10:44 | 46.72621 | 19.19310 | 40191 ft | 473 kts | 297° |
| 2026-04-15 10:44 | 46.75686 | 19.10807 | 40191 ft | 474 kts | 297° |
| 2026-04-15 10:45 | 46.78739 | 19.02310 | 40187 ft | 474 kts | 297° |
| 2026-04-15 10:45 | 46.81789 | 18.93792 | 40190 ft | 475 kts | 297° |
| 2026-04-15 10:46 | 46.84835 | 18.85261 | 40192 ft | 475 kts | 297° |
| 2026-04-15 10:46 | 46.87878 | 18.76708 | 40197 ft | 476 kts | 297° |
| 2026-04-15 10:47 | 46.90921 | 18.68129 | 40186 ft | 476 kts | 297° |
| 2026-04-15 10:47 | 46.93960 | 18.59533 | 40190 ft | 477 kts | 297° |
| 2026-04-15 10:48 | 46.96996 | 18.50918 | 40197 ft | 477 kts | 297° |
| 2026-04-15 10:48 | 47.00030 | 18.42282 | 40199 ft | 478 kts | 296° |
| 2026-04-15 10:49 | 47.03058 | 18.33632 | 40204 ft | 478 kts | 297° |
| 2026-04-15 10:49 | 47.06082 | 18.24967 | 40198 ft | 478 kts | 296° |
| 2026-04-15 10:50 | 47.09102 | 18.16283 | 40198 ft | 479 kts | 296° |
| 2026-04-15 10:50 | 47.12114 | 18.07594 | 40199 ft | 479 kts | 296° |
| 2026-04-15 10:51 | 47.15119 | 17.98895 | 40204 ft | 479 kts | 296° |
| 2026-04-15 10:51 | 47.18119 | 17.90186 | 40208 ft | 479 kts | 296° |
| 2026-04-15 10:52 | 47.21112 | 17.81465 | 40210 ft | 479 kts | 296° |
| 2026-04-15 10:52 | 47.24101 | 17.72727 | 40212 ft | 479 kts | 296° |
| 2026-04-15 10:53 | 47.27083 | 17.63980 | 40213 ft | 479 kts | 296° |
| 2026-04-15 10:53 | 47.30057 | 17.55225 | 40217 ft | 479 kts | 296° |
| 2026-04-15 10:54 | 47.33026 | 17.46458 | 40214 ft | 479 kts | 296° |
| 2026-04-15 10:54 | 47.35984 | 17.37694 | 40212 ft | 478 kts | 296° |
| 2026-04-15 10:55 | 47.38936 | 17.28917 | 40211 ft | 478 kts | 296° |
| 2026-04-15 10:55 | 47.41877 | 17.20142 | 40220 ft | 477 kts | 296° |
| 2026-04-15 10:56 | 47.44809 | 17.11368 | 40206 ft | 477 kts | 296° |
| 2026-04-15 10:56 | 47.47731 | 17.02590 | 40206 ft | 477 kts | 296° |
| 2026-04-15 10:57 | 47.50649 | 16.93797 | 40201 ft | 477 kts | 296° |
| 2026-04-15 10:57 | 47.55016 | 16.80597 | 40216 ft | 477 kts | 296° |
| 2026-04-15 10:58 | 47.57738 | 16.71679 | 40210 ft | 477 kts | 291° |
| 2026-04-15 10:58 | 47.60183 | 16.62574 | 40202 ft | 477 kts | 292° |
| 2026-04-15 10:59 | 47.62679 | 16.53489 | 40212 ft | 477 kts | 292° |
| 2026-04-15 10:59 | 47.65154 | 16.44384 | 40231 ft | 477 kts | 292° |
| 2026-04-15 11:00 | 47.67612 | 16.35273 | 40216 ft | 477 kts | 292° |
| 2026-04-15 11:00 | 47.70062 | 16.26148 | 40218 ft | 477 kts | 292° |
| 2026-04-15 11:01 | 47.72508 | 16.17006 | 40227 ft | 477 kts | 292° |
| 2026-04-15 11:01 | 47.74950 | 16.07842 | 40219 ft | 478 kts | 292° |
| 2026-04-15 11:02 | 47.77386 | 15.98662 | 40216 ft | 479 kts | 292° |
| 2026-04-15 11:02 | 47.79821 | 15.89454 | 40224 ft | 480 kts | 292° |
| 2026-04-15 11:03 | 47.82249 | 15.80230 | 40230 ft | 480 kts | 292° |
| 2026-04-15 11:03 | 47.84676 | 15.70977 | 40235 ft | 481 kts | 292° |
| 2026-04-15 11:04 | 47.87098 | 15.61705 | 40235 ft | 482 kts | 292° |
| 2026-04-15 11:04 | 47.89514 | 15.52421 | 40237 ft | 482 kts | 292° |
| 2026-04-15 11:05 | 47.91921 | 15.43133 | 40232 ft | 481 kts | 292° |
| 2026-04-15 11:05 | 47.94321 | 15.33833 | 40231 ft | 481 kts | 292° |
| 2026-04-15 11:06 | 47.96711 | 15.24535 | 40232 ft | 481 kts | 292° |
| 2026-04-15 11:06 | 47.99095 | 15.15221 | 40230 ft | 481 kts | 291° |
| 2026-04-15 11:07 | 48.01469 | 15.05908 | 40222 ft | 481 kts | 291° |
| 2026-04-15 11:07 | 48.03834 | 14.96594 | 40218 ft | 481 kts | 292° |
| 2026-04-15 11:08 | 48.06194 | 14.87260 | 40214 ft | 481 kts | 291° |
| 2026-04-15 11:08 | 48.08544 | 14.77929 | 40217 ft | 480 kts | 291° |
| 2026-04-15 11:09 | 48.10883 | 14.68602 | 40216 ft | 480 kts | 291° |
| 2026-04-15 11:09 | 48.13213 | 14.59271 | 40212 ft | 480 kts | 291° |
| 2026-04-15 11:10 | 48.15538 | 14.49925 | 40231 ft | 480 kts | 291° |
| 2026-04-15 11:10 | 48.17852 | 14.40582 | 40244 ft | 480 kts | 291° |
| 2026-04-15 11:11 | 48.20158 | 14.31231 | 40249 ft | 479 kts | 291° |
| 2026-04-15 11:11 | 48.22458 | 14.21866 | 40251 ft | 479 kts | 292° |
| 2026-04-15 11:12 | 48.24746 | 14.12510 | 40240 ft | 479 kts | 292° |
| 2026-04-15 11:12 | 48.27027 | 14.03147 | 40216 ft | 479 kts | 291° |
| 2026-04-15 11:13 | 48.29300 | 13.93774 | 40222 ft | 478 kts | 291° |
| 2026-04-15 11:13 | 48.31563 | 13.84404 | 40211 ft | 478 kts | 292° |
| 2026-04-15 11:14 | 48.33817 | 13.75031 | 40219 ft | 478 kts | 292° |
| 2026-04-15 11:14 | 48.36064 | 13.65648 | 40220 ft | 478 kts | 292° |
| 2026-04-15 11:15 | 48.38301 | 13.56269 | 40222 ft | 478 kts | 292° |
| 2026-04-15 11:15 | 48.40531 | 13.46877 | 40221 ft | 477 kts | 292° |
| 2026-04-15 11:16 | 48.42755 | 13.37486 | 40226 ft | 477 kts | 292° |
| 2026-04-15 11:16 | 48.45039 | 13.28128 | 40226 ft | 477 kts | 294° |
| 2026-04-15 11:17 | 48.47521 | 13.18897 | 40230 ft | 476 kts | 294° |
| 2026-04-15 11:17 | 48.49987 | 13.09642 | 40231 ft | 477 kts | 294° |
| 2026-04-15 11:18 | 48.52536 | 13.00456 | 40223 ft | 474 kts | 300° |
| 2026-04-15 11:18 | 48.54061 | 12.96071 | 40117 ft | 472 kts | 300° |
| 2026-04-15 11:18 | 48.55578 | 12.91686 | 39985 ft | 473 kts | 300° |
| 2026-04-15 11:19 | 48.57102 | 12.87271 | 40137 ft | 477 kts | 300° |
| 2026-04-15 11:19 | 48.58639 | 12.82809 | 40234 ft | 482 kts | 300° |
| 2026-04-15 11:19 | 48.61678 | 12.73944 | 39896 ft | 471 kts | 300° |
| 2026-04-15 11:20 | 48.63174 | 12.69567 | 39330 ft | 469 kts | 300° |
| 2026-04-15 11:20 | 48.64665 | 12.65197 | 38673 ft | 469 kts | 300° |
| 2026-04-15 11:20 | 48.66153 | 12.60829 | 37933 ft | 467 kts | 301° |
| 2026-04-15 11:20 | 48.67635 | 12.56469 | 37175 ft | 466 kts | 301° |
| 2026-04-15 11:21 | 48.69112 | 12.52119 | 36401 ft | 466 kts | 302° |
| 2026-04-15 11:21 | 48.70588 | 12.47765 | 35631 ft | 465 kts | 303° |
| 2026-04-15 11:21 | 48.72058 | 12.43421 | 34871 ft | 464 kts | 303° |
| 2026-04-15 11:21 | 48.73522 | 12.39084 | 34086 ft | 463 kts | 304° |
| 2026-04-15 11:22 | 48.74989 | 12.34744 | 32970 ft | 466 kts | 303° |
| 2026-04-15 11:22 | 48.76474 | 12.30353 | 31683 ft | 473 kts | 302° |
| 2026-04-15 11:22 | 48.77968 | 12.25914 | 30779 ft | 473 kts | 302° |
| 2026-04-15 11:22 | 48.79446 | 12.21500 | 29965 ft | 469 kts | 301° |
| 2026-04-15 11:23 | 48.80909 | 12.17123 | 29176 ft | 463 kts | 301° |
| 2026-04-15 11:23 | 48.82355 | 12.12790 | 28385 ft | 459 kts | 301° |
| 2026-04-15 11:23 | 48.83786 | 12.08504 | 27603 ft | 454 kts | 300° |
| 2026-04-15 11:23 | 48.85201 | 12.04258 | 26845 ft | 450 kts | 300° |
| 2026-04-15 11:24 | 48.86605 | 12.00038 | 26090 ft | 446 kts | 300° |
| 2026-04-15 11:24 | 48.87993 | 11.95861 | 25345 ft | 442 kts | 299° |
| 2026-04-15 11:24 | 48.89367 | 11.91717 | 24659 ft | 439 kts | 299° |
| 2026-04-15 11:24 | 48.90727 | 11.87607 | 24324 ft | 434 kts | 299° |
| 2026-04-15 11:25 | 48.92083 | 11.83508 | 24233 ft | 436 kts | 298° |
| 2026-04-15 11:25 | 48.93442 | 11.79390 | 24227 ft | 437 kts | 298° |
| 2026-04-15 11:25 | 48.94802 | 11.75266 | 24225 ft | 437 kts | 298° |
| 2026-04-15 11:25 | 48.96162 | 11.71135 | 24226 ft | 437 kts | 298° |
| 2026-04-15 11:26 | 48.97515 | 11.67012 | 24227 ft | 437 kts | 298° |
| 2026-04-15 11:26 | 48.98867 | 11.62887 | 24226 ft | 437 kts | 298° |
| 2026-04-15 11:26 | 49.00222 | 11.58748 | 24228 ft | 437 kts | 298° |
| 2026-04-15 11:26 | 49.01572 | 11.54617 | 24223 ft | 437 kts | 298° |
| 2026-04-15 11:27 | 49.02924 | 11.50476 | 24217 ft | 437 kts | 298° |
| 2026-04-15 11:27 | 49.04269 | 11.46343 | 24224 ft | 437 kts | 298° |
| 2026-04-15 11:27 | 49.05616 | 11.42202 | 24225 ft | 437 kts | 298° |
| 2026-04-15 11:27 | 49.06960 | 11.38061 | 24219 ft | 437 kts | 298° |
| 2026-04-15 11:28 | 49.08303 | 11.33919 | 24220 ft | 436 kts | 298° |
| 2026-04-15 11:28 | 49.09643 | 11.29776 | 24225 ft | 437 kts | 298° |
| 2026-04-15 11:28 | 49.10983 | 11.25629 | 24224 ft | 437 kts | 298° |
| 2026-04-15 11:28 | 49.12320 | 11.21484 | 24221 ft | 437 kts | 298° |
| 2026-04-15 11:29 | 49.13657 | 11.17332 | 24225 ft | 437 kts | 298° |
| 2026-04-15 11:29 | 49.14993 | 11.13177 | 24228 ft | 437 kts | 298° |
| 2026-04-15 11:29 | 49.16326 | 11.09024 | 24221 ft | 436 kts | 298° |
| 2026-04-15 11:29 | 49.17659 | 11.04863 | 24221 ft | 436 kts | 298° |
| 2026-04-15 11:30 | 49.18988 | 11.00708 | 24248 ft | 437 kts | 298° |
| 2026-04-15 11:30 | 49.20317 | 10.96548 | 24247 ft | 437 kts | 298° |
| 2026-04-15 11:30 | 49.21645 | 10.92381 | 24249 ft | 437 kts | 298° |
| 2026-04-15 11:30 | 49.22968 | 10.88225 | 24243 ft | 437 kts | 298° |
| 2026-04-15 11:31 | 49.24295 | 10.84049 | 24258 ft | 435 kts | 297° |
| 2026-04-15 11:31 | 49.25612 | 10.79894 | 24248 ft | 435 kts | 297° |
| 2026-04-15 11:31 | 49.26930 | 10.75731 | 24248 ft | 435 kts | 297° |
| 2026-04-15 11:31 | 49.28246 | 10.71569 | 24247 ft | 435 kts | 297° |
| 2026-04-15 11:32 | 49.29560 | 10.67410 | 24253 ft | 434 kts | 297° |
| 2026-04-15 11:32 | 49.30867 | 10.63263 | 24254 ft | 433 kts | 297° |
| 2026-04-15 11:32 | 49.32172 | 10.59112 | 24254 ft | 433 kts | 297° |
| 2026-04-15 11:32 | 49.33478 | 10.54955 | 24240 ft | 433 kts | 297° |
| 2026-04-15 11:33 | 49.34781 | 10.50803 | 24238 ft | 433 kts | 297° |
| 2026-04-15 11:33 | 49.36126 | 10.46683 | 24240 ft | 433 kts | 301° |
| 2026-04-15 11:33 | 49.37779 | 10.42850 | 24256 ft | 431 kts | 307° |
| 2026-04-15 11:33 | 49.39512 | 10.39112 | 24229 ft | 426 kts | 307° |
| 2026-04-15 11:34 | 49.41182 | 10.35473 | 24049 ft | 411 kts | 306° |
| 2026-04-15 11:34 | 49.42800 | 10.31926 | 23814 ft | 401 kts | 306° |
| 2026-04-15 11:34 | 49.44388 | 10.28439 | 23529 ft | 398 kts | 306° |
| 2026-04-15 11:34 | 49.45972 | 10.24954 | 23260 ft | 399 kts | 306° |
| 2026-04-15 11:35 | 49.47554 | 10.21469 | 22978 ft | 398 kts | 306° |
| 2026-04-15 11:35 | 49.49127 | 10.17999 | 22718 ft | 396 kts | 306° |
| 2026-04-15 11:35 | 49.50696 | 10.14537 | 22453 ft | 395 kts | 306° |
| 2026-04-15 11:35 | 49.52259 | 10.11080 | 22192 ft | 393 kts | 306° |
| 2026-04-15 11:36 | 49.53816 | 10.07637 | 21931 ft | 392 kts | 305° |
| 2026-04-15 11:36 | 49.55368 | 10.04197 | 21668 ft | 391 kts | 305° |
| 2026-04-15 11:36 | 49.56912 | 10.00771 | 21421 ft | 390 kts | 305° |
| 2026-04-15 11:36 | 49.58451 | 9.97350 | 21167 ft | 389 kts | 305° |
| 2026-04-15 11:37 | 49.59985 | 9.93936 | 20917 ft | 388 kts | 305° |
| 2026-04-15 11:37 | 49.61513 | 9.90534 | 20659 ft | 386 kts | 304° |
| 2026-04-15 11:37 | 49.63027 | 9.87152 | 20416 ft | 382 kts | 304° |
| 2026-04-15 11:37 | 49.64530 | 9.83783 | 20166 ft | 382 kts | 304° |
| 2026-04-15 11:38 | 49.66032 | 9.80412 | 19915 ft | 382 kts | 304° |
| 2026-04-15 11:38 | 49.67526 | 9.77049 | 19694 ft | 380 kts | 304° |
| 2026-04-15 11:38 | 49.69015 | 9.73688 | 19453 ft | 380 kts | 304° |
| 2026-04-15 11:38 | 49.70502 | 9.70327 | 19211 ft | 379 kts | 304° |
| 2026-04-15 11:39 | 49.71981 | 9.66976 | 18977 ft | 379 kts | 303° |
| 2026-04-15 11:39 | 49.73458 | 9.63623 | 18746 ft | 378 kts | 303° |
| 2026-04-15 11:39 | 49.74935 | 9.60262 | 18507 ft | 377 kts | 303° |
| 2026-04-15 11:39 | 49.76401 | 9.56919 | 18234 ft | 376 kts | 303° |
| 2026-04-15 11:40 | 49.77858 | 9.53589 | 17976 ft | 374 kts | 303° |
| 2026-04-15 11:40 | 49.79307 | 9.50274 | 17716 ft | 371 kts | 303° |
| 2026-04-15 11:40 | 49.80741 | 9.46981 | 17454 ft | 369 kts | 303° |
| 2026-04-15 11:40 | 49.82170 | 9.43694 | 17196 ft | 368 kts | 303° |
| 2026-04-15 11:41 | 49.83589 | 9.40423 | 16936 ft | 366 kts | 303° |
| 2026-04-15 11:41 | 49.84999 | 9.37165 | 16678 ft | 364 kts | 303° |
| 2026-04-15 11:41 | 49.86404 | 9.33911 | 16431 ft | 363 kts | 303° |
| 2026-04-15 11:41 | 49.87798 | 9.30678 | 16122 ft | 359 kts | 303° |
| 2026-04-15 11:42 | 49.89174 | 9.27476 | 15697 ft | 356 kts | 303° |
| 2026-04-15 11:42 | 49.90525 | 9.24286 | 15444 ft | 354 kts | 300° |
| 2026-04-15 11:42 | 49.91420 | 9.20756 | 15017 ft | 354 kts | 281° |
| 2026-04-15 11:42 | 49.91677 | 9.16955 | 14314 ft | 357 kts | 273° |
| 2026-04-15 11:43 | 49.91804 | 9.13143 | 13839 ft | 351 kts | 272° |
| 2026-04-15 11:43 | 49.91923 | 9.09405 | 13401 ft | 345 kts | 272° |
| 2026-04-15 11:43 | 49.92147 | 9.05738 | 13254 ft | 342 kts | 279° |
| 2026-04-15 11:43 | 49.92773 | 9.02190 | 13247 ft | 343 kts | 289° |
| 2026-04-15 11:44 | 49.93774 | 8.98829 | 13242 ft | 344 kts | 297° |
| 2026-04-15 11:44 | 49.94869 | 8.95536 | 13241 ft | 344 kts | 296° |
| 2026-04-15 11:44 | 49.95941 | 8.92222 | 13248 ft | 344 kts | 295° |
| 2026-04-15 11:44 | 49.97009 | 8.88901 | 13245 ft | 344 kts | 295° |
| 2026-04-15 11:45 | 49.98073 | 8.85587 | 13229 ft | 343 kts | 295° |
| 2026-04-15 11:45 | 49.99135 | 8.82282 | 12844 ft | 343 kts | 295° |
| 2026-04-15 11:45 | 50.00206 | 8.78946 | 12047 ft | 348 kts | 295° |
| 2026-04-15 11:45 | 50.01302 | 8.75532 | 11011 ft | 358 kts | 295° |
| 2026-04-15 11:46 | 50.02411 | 8.72075 | 10292 ft | 357 kts | 295° |
| 2026-04-15 11:46 | 50.03504 | 8.68676 | 9871 ft | 346 kts | 295° |
| 2026-04-15 11:46 | 50.04556 | 8.65396 | 9542 ft | 333 kts | 295° |
| 2026-04-15 11:46 | 50.05565 | 8.62237 | 9233 ft | 321 kts | 295° |
| 2026-04-15 11:47 | 50.06541 | 8.59180 | 8921 ft | 311 kts | 295° |
| 2026-04-15 11:47 | 50.07486 | 8.56214 | 8655 ft | 301 kts | 295° |
| 2026-04-15 11:47 | 50.08399 | 8.53343 | 8417 ft | 293 kts | 295° |
| 2026-04-15 11:47 | 50.09290 | 8.50542 | 8151 ft | 286 kts | 295° |
| 2026-04-15 11:48 | 50.10160 | 8.47804 | 7950 ft | 282 kts | 295° |
| 2026-04-15 11:48 | 50.10859 | 8.44999 | 7743 ft | 278 kts | 277° |
| 2026-04-15 11:48 | 50.10763 | 8.42049 | 7589 ft | 272 kts | 252° |
| 2026-04-15 11:48 | 50.10091 | 8.39330 | 7445 ft | 271 kts | 248° |
| 2026-04-15 11:49 | 50.09415 | 8.36586 | 7248 ft | 272 kts | 248° |
| 2026-04-15 11:49 | 50.08754 | 8.33841 | 7085 ft | 271 kts | 248° |
| 2026-04-15 11:49 | 50.08098 | 8.31112 | 6907 ft | 269 kts | 248° |
| 2026-04-15 11:49 | 50.07444 | 8.28392 | 6737 ft | 268 kts | 248° |
| 2026-04-15 11:50 | 50.06790 | 8.25680 | 6569 ft | 268 kts | 248° |
| 2026-04-15 11:50 | 50.06128 | 8.22969 | 6394 ft | 269 kts | 248° |
| 2026-04-15 11:50 | 50.05466 | 8.20260 | 6207 ft | 268 kts | 248° |
| 2026-04-15 11:50 | 50.04806 | 8.17564 | 6025 ft | 267 kts | 248° |
| 2026-04-15 11:51 | 50.04148 | 8.14863 | 5845 ft | 268 kts | 248° |
| 2026-04-15 11:51 | 50.03491 | 8.12164 | 5679 ft | 268 kts | 247° |
| 2026-04-15 11:51 | 50.02831 | 8.09463 | 5496 ft | 269 kts | 247° |
| 2026-04-15 11:51 | 50.02170 | 8.06753 | 5325 ft | 269 kts | 248° |
| 2026-04-15 11:52 | 50.01507 | 8.04042 | 5140 ft | 268 kts | 248° |
| 2026-04-15 11:52 | 50.00848 | 8.01334 | 4962 ft | 268 kts | 247° |
| 2026-04-15 11:52 | 50.00186 | 7.98639 | 4778 ft | 267 kts | 248° |
| 2026-04-15 11:52 | 49.99528 | 7.95933 | 4589 ft | 269 kts | 248° |
| 2026-04-15 11:53 | 49.98866 | 7.93228 | 4412 ft | 268 kts | 248° |
| 2026-04-15 11:53 | 49.98202 | 7.90529 | 4252 ft | 268 kts | 247° |
| 2026-04-15 11:53 | 49.97557 | 7.87879 | 4054 ft | 257 kts | 248° |
| 2026-04-15 11:53 | 49.96866 | 7.85414 | 3970 ft | 242 kts | 234° |
| 2026-04-15 11:54 | 49.95677 | 7.83706 | 3983 ft | 232 kts | 206° |
| 2026-04-15 11:54 | 49.94151 | 7.83060 | 3988 ft | 228 kts | 179° |
| 2026-04-15 11:54 | 49.92615 | 7.83536 | 3980 ft | 226 kts | 157° |
| 2026-04-15 11:54 | 49.91151 | 7.84446 | 3980 ft | 227 kts | 158° |
| 2026-04-15 11:55 | 49.89670 | 7.85330 | 3976 ft | 228 kts | 158° |
| 2026-04-15 11:55 | 49.88318 | 7.86525 | 3977 ft | 225 kts | 134° |
| 2026-04-15 11:55 | 49.87547 | 7.88600 | 3990 ft | 225 kts | 104° |
| 2026-04-15 11:55 | 49.87562 | 7.90995 | 3990 ft | 227 kts | 74° |
| 2026-04-15 11:56 | 49.88134 | 7.93281 | 3980 ft | 228 kts | 69° |
| 2026-04-15 11:56 | 49.88707 | 7.95548 | 3982 ft | 224 kts | 70° |
| 2026-04-15 11:56 | 49.89265 | 7.97813 | 3980 ft | 226 kts | 71° |
| 2026-04-15 11:56 | 49.89819 | 8.00100 | 3984 ft | 228 kts | 71° |
| 2026-04-15 11:57 | 49.90375 | 8.02381 | 3983 ft | 225 kts | 70° |
| 2026-04-15 11:57 | 49.91617 | 8.06859 | 3984 ft | 228 kts | 69° |
| 2026-04-15 11:57 | 49.92191 | 8.09142 | 3983 ft | 227 kts | 70° |
| 2026-04-15 11:58 | 49.92743 | 8.11435 | 3981 ft | 226 kts | 71° |
| 2026-04-15 11:58 | 49.93287 | 8.13727 | 3987 ft | 226 kts | 70° |
| 2026-04-15 11:58 | 49.93837 | 8.16006 | 3986 ft | 226 kts | 71° |
| 2026-04-15 11:58 | 49.94375 | 8.18272 | 3985 ft | 223 kts | 71° |
| 2026-04-15 11:59 | 49.94904 | 8.20480 | 3977 ft | 213 kts | 70° |
| 2026-04-15 11:59 | 49.95392 | 8.22517 | 3981 ft | 187 kts | 71° |
| 2026-04-15 11:59 | 49.95832 | 8.24367 | 3983 ft | 181 kts | 71° |
| 2026-04-15 11:59 | 49.96249 | 8.26120 | 3977 ft | 167 kts | 71° |
| 2026-04-15 12:00 | 49.96648 | 8.27788 | 3864 ft | 164 kts | 71° |
| 2026-04-15 12:00 | 49.97043 | 8.29441 | 3630 ft | 163 kts | 71° |
| 2026-04-15 12:00 | 49.97439 | 8.31088 | 3407 ft | 163 kts | 70° |
| 2026-04-15 12:00 | 49.97826 | 8.32722 | 3181 ft | 161 kts | 71° |
| 2026-04-15 12:01 | 49.98203 | 8.34295 | 2966 ft | 152 kts | 70° |
| 2026-04-15 12:01 | 49.98571 | 8.35840 | 2758 ft | 151 kts | 70° |
| 2026-04-15 12:01 | 49.98932 | 8.37360 | 2559 ft | 148 kts | 70° |
| 2026-04-15 12:01 | 49.99278 | 8.38812 | 2370 ft | 140 kts | 70° |
| 2026-04-15 12:02 | 49.99618 | 8.40226 | 2166 ft | 140 kts | 70° |
| 2026-04-15 12:02 | 49.99949 | 8.41615 | 1982 ft | 135 kts | 71° |
| 2026-04-15 12:02 | 50.00272 | 8.42980 | 1787 ft | 133 kts | 70° |
| 2026-04-15 12:02 | 50.00592 | 8.44322 | 1578 ft | 135 kts | 70° |
| 2026-04-15 12:03 | 50.00915 | 8.45676 | 1408 ft | 134 kts | 70° |
| 2026-04-15 12:03 | 50.01239 | 8.47035 | 1210 ft | 134 kts | 69° |
| 2026-04-15 12:03 | 50.01566 | 8.48395 | 1026 ft | 134 kts | 69° |
| 2026-04-15 12:03 | 50.01887 | 8.49759 | 830 ft | 135 kts | 68° |
| 2026-04-15 12:04 | 50.02217 | 8.51129 | 665 ft | 135 kts | 68° |
| 2026-04-15 12:04 | 50.02539 | 8.52495 | 492 ft | 134 kts | 67° |
| 2026-04-15 12:04 | 50.02863 | 8.53846 | 358 ft | 128 kts | 69° |
| 2026-04-15 12:04 | 50.03099 | 8.54826 | 352 ft | 70 kts | 71° |
| 2026-04-15 12:05 | 50.03217 | 8.55351 | 355 ft | 44 kts | 70° |
| 2026-04-15 12:05 | 50.03316 | 8.55703 | 357 ft | 28 kts | 50° |
| 2026-04-15 12:05 | 50.03437 | 8.55856 | 361 ft | 18 kts | 37° |
| 2026-04-15 12:05 | 50.03519 | 8.55956 | 362 ft | 13 kts | 41° |
| 2026-04-15 12:06 | 50.03606 | 8.56078 | 363 ft | 20 kts | 43° |
| 2026-04-15 12:06 | 50.03675 | 8.56233 | 361 ft | 15 kts | 67° |
| 2026-04-15 12:06 | 50.03709 | 8.56382 | 363 ft | 20 kts | 70° |
| 2026-04-15 12:06 | 50.03791 | 8.56725 | 362 ft | 46 kts | 69° |
| 2026-04-15 12:07 | 50.03919 | 8.57254 | 360 ft | 49 kts | 69° |
| 2026-04-15 12:07 | 50.04010 | 8.57637 | 364 ft | 31 kts | 70° |
| 2026-04-15 12:07 | 50.04100 | 8.58022 | 365 ft | 44 kts | 69° |
| 2026-04-15 12:07 | 50.04215 | 8.58481 | 363 ft | 44 kts | 67° |
| 2026-04-15 12:08 | 50.04373 | 8.58636 | 362 ft | 20 kts | 5° |
| 2026-04-15 12:08 | 50.04504 | 8.58656 | 365 ft | 21 kts | 11° |
| 2026-04-15 12:08 | 50.04580 | 8.58702 | 366 ft | 0 kts | 32° |
| 2026-04-15 12:09 | 50.04656 | 8.58757 | 364 ft | 25 kts | 13° |
| 2026-04-15 12:09 | 50.04842 | 8.58708 | 361 ft | 23 kts | 341° |
| 2026-04-15 12:09 | 50.04912 | 8.58628 | 363 ft | 8 kts | 267° |
| 2026-04-15 12:09 | 50.04891 | 8.58427 | 363 ft | 31 kts | 249° |
| 2026-04-15 12:10 | 50.04815 | 8.58116 | 362 ft | 28 kts | 249° |
| 2026-04-15 12:10 | 50.04764 | 8.57921 | 363 ft | 17 kts | 262° |
| 2026-04-15 12:10 | 50.04763 | 8.57767 | 359 ft | 9 kts | 269° |
| 2026-04-15 12:10 | 50.04763 | 8.57746 | 362 ft | 0 kts | 269° |